TAF Text Data
IDs:
Format:
Raw Decoded Include METAR

Data at: 2226 UTC 01 Dec 2021

KLAR 011720Z 0118/0218 25018G28KT P6SM BKN200
  FM020100 25012KT P6SM SCT200
  FM021200 22008KT P6SM SCT200